Time;durP1;ratioP1;P1;durP2;ratioP2;P2;SDS_P1;SDS_P2;PMS_P1;PMS_P2;Temp;Humidity;BMP_temperature;BMP_pressure;BME280_temperature;BME280_humidity;BME280_pressure;Samples;Min_cycle;Max_cycle;Signal;HPM_P1;HPM_P2
2023/07/03 00:00:57;;;;;;;17.90;5.82;;;15.90;99.90;;;;;;5074739;28;20177;-77
2023/07/03 00:03:23;;;;;;;12.82;4.63;;;15.80;99.90;;;;;;5074666;28;20176;-76
2023/07/03 00:05:49;;;;;;;15.63;5.65;;;15.80;99.90;;;;;;5056898;28;20190;-77
2023/07/03 00:08:16;;;;;;;20.30;5.10;;;15.80;1.00;;;;;;5074440;28;20198;-76
2023/07/03 00:10:42;;;;;;;21.67;5.95;;;15.70;99.90;;;;;;5074893;28;20166;-77
2023/07/03 00:13:09;;;;;;;15.20;5.03;;;15.70;99.90;;;;;;5074523;28;20634;-77
2023/07/03 00:15:35;;;;;;;18.15;6.00;;;15.60;99.90;;;;;;5056077;28;20207;-77
2023/07/03 00:18:01;;;;;;;14.90;5.10;;;15.60;99.90;;;;;;5074060;28;20533;-76
2023/07/03 00:20:30;;;;;;;18.05;5.68;;;15.50;99.90;;;;;;5074257;28;20214;-77
2023/07/03 00:22:56;;;;;;;18.02;5.93;;;15.50;1.00;;;;;;5074183;28;20634;-76
2023/07/03 00:25:23;;;;;;;24.48;5.20;;;15.40;1.00;;;;;;5056969;28;20227;-77
2023/07/03 00:27:49;;;;;;;17.92;5.25;;;15.40;1.00;;;;;;5074770;28;20638;-76
2023/07/03 00:30:16;;;;;;;10.88;4.82;;;15.40;1.00;;;;;;5074280;28;20245;-76
2023/07/03 00:32:42;;;;;;;10.80;5.03;;;15.30;1.00;;;;;;5057316;28;20178;-76
2023/07/03 00:35:08;;;;;;;15.40;5.13;;;15.40;1.00;;;;;;5074347;28;20709;-77
2023/07/03 00:37:34;;;;;;;10.05;4.82;;;15.30;1.00;;;;;;5074011;28;20231;-76
2023/07/03 00:40:00;;;;;;;19.05;5.55;;;15.30;1.00;;;;;;5056235;28;20219;-77
2023/07/03 00:42:28;;;;;;;15.45;4.78;;;15.30;1.00;;;;;;5074114;28;20650;-77
2023/07/03 00:44:54;;;;;;;17.17;5.03;;;15.20;1.00;;;;;;5055894;28;20189;-76
2023/07/03 00:47:21;;;;;;;15.43;5.55;;;15.20;1.00;;;;;;5056217;28;20597;-76
2023/07/03 00:49:48;;;;;;;16.52;5.20;;;15.20;1.00;;;;;;5056630;28;20217;-77
2023/07/03 00:52:14;;;;;;;15.98;5.20;;;15.10;1.00;;;;;;5056344;28;20174;-77
2023/07/03 00:54:41;;;;;;;16.48;5.40;;;15.00;1.00;;;;;;5074205;28;20174;-76
2023/07/03 00:57:12;;;;;;;21.50;5.90;;;15.10;1.00;;;;;;5058459;28;20227;-75
2023/07/03 00:59:38;;;;;;;13.00;5.00;;;15.10;1.00;;;;;;5059567;28;20230;-76
2023/07/03 01:02:40;;;;;;;10.55;4.65;;;15.00;1.00;;;;;;5062519;28;20231;-76
2023/07/03 01:05:14;;;;;;;18.45;5.85;;;14.90;1.00;;;;;;5061938;28;20189;-76
2023/07/03 01:07:41;;;;;;;17.67;5.53;;;15.00;1.00;;;;;;5060908;28;20191;-76
2023/07/03 01:10:33;;;;;;;12.75;4.93;;;15.00;1.00;;;;;;5078063;28;20686;-76
2023/07/03 01:13:03;;;;;;;14.13;5.10;;;15.00;1.00;;;;;;5074941;28;20192;-76
2023/07/03 01:15:31;;;;;;;16.25;4.90;;;15.00;1.00;;;;;;5077826;28;20174;-77
2023/07/03 01:18:00;;;;;;;12.68;4.65;;;15.00;1.00;;;;;;5060287;28;20170;-77
2023/07/03 01:20:31;;;;;;;14.75;5.38;;;15.10;1.00;;;;;;5077947;28;20189;-76
2023/07/03 01:23:06;;;;;;;15.35;5.00;;;15.10;1.00;;;;;;5077872;28;20168;-76
2023/07/03 01:25:34;;;;;;;15.32;5.38;;;15.00;1.00;;;;;;5077596;28;20169;-76
2023/07/03 01:28:03;;;;;;;13.63;5.40;;;15.00;1.00;;;;;;5077685;28;20170;-76
2023/07/03 01:30:30;;;;;;;20.02;5.57;;;14.90;1.00;;;;;;5059904;28;20583;-77
2023/07/03 01:32:58;;;;;;;11.48;5.10;;;14.80;1.00;;;;;;5059026;28;20197;-77
2023/07/03 01:35:25;;;;;;;16.13;5.95;;;14.80;1.00;;;;;;5076975;28;20166;-77
2023/07/03 01:37:53;;;;;;;14.95;5.22;;;14.80;1.00;;;;;;5077263;28;20180;-76
2023/07/03 01:40:23;;;;;;;15.07;6.15;;;14.60;1.00;;;;;;5076979;28;20319;-76
2023/07/03 01:42:50;;;;;;;23.23;6.07;;;14.60;1.00;;;;;;5058910;28;20549;-77
2023/07/03 01:45:16;;;;;;;10.80;4.47;;;14.50;1.00;;;;;;5076471;28;20178;-77
2023/07/03 01:47:42;;;;;;;16.50;4.90;;;14.50;1.00;;;;;;5076740;28;20170;-77
2023/07/03 01:50:14;;;;;;;15.02;4.85;;;14.40;5.30;;;;;;5058563;28;20706;-76
2023/07/03 01:52:44;;;;;;;18.00;5.82;;;14.40;13.60;;;;;;5058772;28;20260;-76
2023/07/03 01:55:20;;;;;;;18.98;5.43;;;14.40;38.10;;;;;;5058920;28;20192;-76
2023/07/03 01:57:50;;;;;;;15.75;4.80;;;14.50;3.20;;;;;;5080832;28;20242;-76
2023/07/03 02:00:22;;;;;;;17.15;5.68;;;14.40;20.80;;;;;;5060448;28;20200;-76
2023/07/03 02:02:52;;;;;;;19.77;5.32;;;14.40;49.10;;;;;;5059442;28;20180;-76
2023/07/03 02:05:22;;;;;;;14.77;5.03;;;14.40;52.20;;;;;;5076761;28;20174;-76
2023/07/03 02:07:53;;;;;;;15.50;5.13;;;14.30;51.70;;;;;;5058361;28;20252;-76
2023/07/03 02:10:19;;;;;;;20.33;5.57;;;14.30;77.70;;;;;;5076501;28;20190;-77
2023/07/03 02:12:46;;;;;;;16.80;5.63;;;14.20;92.70;;;;;;5058163;28;20551;-76
2023/07/03 02:15:14;;;;;;;17.77;5.40;;;14.10;99.20;;;;;;5058209;28;20182;-75
2023/07/03 02:17:40;;;;;;;16.65;5.70;;;14.10;99.90;;;;;;5058205;28;20652;-76
2023/07/03 02:20:13;;;;;;;14.18;4.90;;;14.00;99.90;;;;;;5077455;28;20202;-76
2023/07/03 02:22:40;;;;;;;21.25;5.20;;;14.00;99.90;;;;;;5059679;28;20184;-76
2023/07/03 02:25:06;;;;;;;14.98;5.50;;;14.00;99.90;;;;;;5075979;28;20182;-76
2023/07/03 02:27:32;;;;;;;14.38;5.75;;;14.10;99.90;;;;;;5077445;28;20181;-76
2023/07/03 02:29:58;;;;;;;19.40;5.30;;;14.00;99.90;;;;;;5061769;28;20285;-76
2023/07/03 02:32:38;;;;;;;15.70;5.30;;;14.00;99.90;;;;;;5058849;28;20169;-76
2023/07/03 02:35:05;;;;;;;20.00;5.72;;;13.90;99.90;;;;;;5076861;28;20625;-76
2023/07/03 02:37:31;;;;;;;18.98;5.30;;;13.90;99.90;;;;;;5058372;28;20201;-77
2023/07/03 02:39:57;;;;;;;16.55;5.82;;;13.90;99.90;;;;;;5076260;28;20251;-76
2023/07/03 02:42:22;;;;;;;14.82;5.80;;;13.90;99.90;;;;;;5058419;28;20177;-76
2023/07/03 02:44:48;;;;;;;22.65;5.85;;;13.90;99.90;;;;;;5057497;28;20190;-76
2023/07/03 02:47:14;;;;;;;16.60;5.65;;;14.00;99.90;;;;;;5076072;28;20622;-76
2023/07/03 02:49:41;;;;;;;19.52;5.35;;;14.00;99.90;;;;;;5057568;28;20288;-77
2023/07/03 02:52:07;;;;;;;20.63;5.20;;;14.00;99.90;;;;;;5075239;28;20166;-76
2023/07/03 02:54:33;;;;;;;12.05;5.03;;;14.00;99.90;;;;;;5058043;28;20630;-77
2023/07/03 02:56:58;;;;;;;16.45;5.22;;;14.00;99.90;;;;;;5075438;28;20178;-77
2023/07/03 02:59:24;;;;;;;15.57;5.10;;;14.00;99.90;;;;;;5057335;28;20213;-76
2023/07/03 03:01:50;;;;;;;15.70;5.72;;;14.00;99.90;;;;;;5075265;28;20658;-77
2023/07/03 03:04:16;;;;;;;13.93;5.45;;;14.00;99.90;;;;;;5057152;28;20578;-77
2023/07/03 03:06:43;;;;;;;16.88;5.18;;;14.00;99.90;;;;;;5056756;28;20281;-76
2023/07/03 03:09:09;;;;;;;23.38;6.05;;;14.00;99.90;;;;;;5074633;28;20244;-77
2023/07/03 03:11:36;;;;;;;23.13;6.10;;;14.00;99.90;;;;;;5074726;28;20166;-76
2023/07/03 03:14:02;;;;;;;14.10;5.30;;;14.00;99.90;;;;;;5074438;28;20170;-76
2023/07/03 03:16:27;;;;;;;22.75;6.13;;;14.00;99.90;;;;;;5056393;28;20273;-76
2023/07/03 03:18:53;;;;;;;14.75;5.30;;;13.90;99.90;;;;;;5056594;28;20292;-76
2023/07/03 03:21:19;;;;;;;18.60;6.68;;;14.00;99.90;;;;;;5074810;28;20657;-76
2023/07/03 03:23:46;;;;;;;14.55;6.03;;;13.90;99.90;;;;;;5073868;28;20181;-76
2023/07/03 03:26:12;;;;;;;20.23;5.65;;;13.90;99.90;;;;;;5056598;28;20197;-75
2023/07/03 03:28:38;;;;;;;18.33;6.63;;;13.80;99.90;;;;;;5074394;28;20258;-76
2023/07/03 03:31:05;;;;;;;32.47;7.05;;;13.80;99.90;;;;;;5056467;28;20615;-75
2023/07/03 03:33:31;;;;;;;16.70;6.00;;;13.80;99.90;;;;;;5056207;28;20182;-76
2023/07/03 03:35:57;;;;;;;20.15;5.60;;;13.90;99.90;;;;;;5056678;28;20520;-75
2023/07/03 03:38:22;;;;;;;20.25;6.32;;;13.90;99.90;;;;;;5074604;28;20697;-76
2023/07/03 03:40:57;;;;;;;12.57;5.53;;;13.90;99.90;;;;;;5073946;28;20590;-76
2023/07/03 03:43:23;;;;;;;16.75;6.07;;;13.90;99.90;;;;;;5056271;28;20668;-76
2023/07/03 03:45:56;;;;;;;16.55;5.50;;;13.90;99.90;;;;;;5055956;28;20186;-75
2023/07/03 03:48:23;;;;;;;14.95;5.45;;;13.90;99.90;;;;;;5056034;28;20572;-76
2023/07/03 03:50:49;;;;;;;20.10;6.53;;;13.90;99.90;;;;;;5074111;28;20718;-77
2023/07/03 03:53:15;;;;;;;20.38;5.88;;;13.90;99.90;;;;;;5055933;28;20205;-76
2023/07/03 03:55:41;;;;;;;23.20;6.43;;;13.90;99.90;;;;;;5074091;28;20174;-75
2023/07/03 03:58:08;;;;;;;17.15;6.10;;;13.90;99.90;;;;;;5073785;28;20216;-77
2023/07/03 04:00:34;;;;;;;22.02;7.47;;;13.90;99.90;;;;;;5055534;28;20178;-75
2023/07/03 04:03:00;;;;;;;18.75;6.60;;;13.90;99.90;;;;;;5073894;28;20406;-76
2023/07/03 04:05:26;;;;;;;17.85;6.05;;;13.90;99.90;;;;;;5055735;28;20193;-77
2023/07/03 04:07:52;;;;;;;16.83;5.53;;;14.00;99.90;;;;;;5073928;28;20240;-76
2023/07/03 04:10:18;;;;;;;18.85;5.47;;;14.00;99.90;;;;;;5055773;28;20196;-76
2023/07/03 04:12:43;;;;;;;24.55;6.25;;;14.10;99.90;;;;;;5073769;28;20169;-77
2023/07/03 04:15:10;;;;;;;16.75;5.20;;;14.10;99.90;;;;;;5073505;28;20182;-77
2023/07/03 04:17:35;;;;;;;18.42;5.75;;;14.20;99.90;;;;;;5073451;28;20223;-77
2023/07/03 04:20:06;;;;;;;22.02;6.10;;;14.20;99.90;;;;;;5055726;28;20293;-76
2023/07/03 04:22:32;;;;;;;20.70;6.50;;;14.10;99.90;;;;;;5055661;28;20169;-76
2023/07/03 04:24:57;;;;;;;18.50;5.50;;;14.20;99.90;;;;;;5055952;28;20189;-77
2023/07/03 04:27:23;;;;;;;22.95;6.70;;;14.10;99.90;;;;;;5073945;28;20561;-76
2023/07/03 04:29:49;;;;;;;21.88;5.78;;;14.20;99.90;;;;;;5073336;28;20209;-78
2023/07/03 04:32:14;;;;;;;20.73;6.00;;;14.10;99.90;;;;;;5055509;28;20177;-76
2023/07/03 04:34:40;;;;;;;20.20;5.95;;;14.10;99.90;;;;;;5075518;28;20669;-76
2023/07/03 04:37:08;;;;;;;26.45;6.90;;;14.10;99.90;;;;;;5059564;28;20721;-77
2023/07/03 04:39:34;;;;;;;17.77;6.32;;;14.10;99.90;;;;;;5077465;28;20185;-76
2023/07/03 04:42:00;;;;;;;22.27;6.07;;;14.20;99.90;;;;;;5077488;28;20660;-77
2023/07/03 04:44:29;;;;;;;23.25;6.30;;;14.20;99.90;;;;;;5059432;28;20189;-77
2023/07/03 04:46:58;;;;;;;25.63;6.03;;;14.20;99.90;;;;;;5059010;28;20183;-75
2023/07/03 04:49:26;;;;;;;24.70;5.70;;;14.20;99.90;;;;;;5077419;28;20670;-77
2023/07/03 04:51:54;;;;;;;22.05;6.22;;;14.10;99.90;;;;;;5059292;28;20193;-78
2023/07/03 04:54:20;;;;;;;19.17;6.20;;;14.10;99.90;;;;;;5077538;28;20176;-77
2023/07/03 04:56:48;;;;;;;24.23;6.88;;;14.00;99.90;;;;;;5059324;28;20173;-77
2023/07/03 04:59:17;;;;;;;18.92;5.80;;;13.90;99.90;;;;;;5077206;28;20190;-75
2023/07/03 05:01:42;;;;;;;20.38;6.13;;;14.00;99.90;;;;;;5076861;28;20180;-77
2023/07/03 05:04:12;;;;;;;24.92;6.53;;;14.00;99.90;;;;;;5058878;28;20239;-77
2023/07/03 05:06:38;;;;;;;24.85;6.38;;;14.10;99.90;;;;;;5058881;28;20657;-77
2023/07/03 05:09:05;;;;;;;23.33;6.32;;;14.10;99.90;;;;;;5076845;28;20237;-77
2023/07/03 05:11:33;;;;;;;29.05;7.05;;;14.10;99.90;;;;;;5058918;28;20185;-77
2023/07/03 05:13:59;;;;;;;24.40;7.32;;;14.20;99.90;;;;;;5077264;28;20652;-74
2023/07/03 05:16:24;;;;;;;22.17;6.47;;;14.20;99.90;;;;;;5058758;28;20181;-75
2023/07/03 05:18:50;;;;;;;21.73;6.28;;;14.20;99.90;;;;;;5059067;28;20626;-75
2023/07/03 05:21:16;;;;;;;22.33;7.03;;;14.30;99.90;;;;;;5058832;28;20277;-76
2023/07/03 05:23:42;;;;;;;21.25;6.90;;;14.40;99.90;;;;;;5076947;28;20174;-76
2023/07/03 05:26:08;;;;;;;25.67;7.70;;;14.50;99.90;;;;;;5076452;28;20169;-75
2023/07/03 05:28:36;;;;;;;19.33;6.97;;;14.50;99.90;;;;;;5076418;28;20209;-76
2023/07/03 05:31:02;;;;;;;20.45;7.20;;;14.50;99.90;;;;;;5076126;28;20155;-76
2023/07/03 05:33:29;;;;;;;21.65;5.97;;;14.60;99.90;;;;;;5076295;28;20618;-75
2023/07/03 05:35:59;;;;;;;19.80;6.38;;;14.70;99.90;;;;;;5058234;28;20261;-77
2023/07/03 05:38:24;;;;;;;17.70;6.85;;;14.70;99.90;;;;;;5076611;28;20263;-77
2023/07/03 05:40:50;;;;;;;16.67;6.78;;;14.80;99.90;;;;;;5075999;28;20646;-76
2023/07/03 05:43:17;;;;;;;22.95;6.80;;;14.80;99.90;;;;;;5058216;28;20182;-76
2023/07/03 05:45:43;;;;;;;23.40;6.18;;;14.90;99.90;;;;;;5075063;28;20204;-76
2023/07/03 05:48:09;;;;;;;20.90;6.75;;;14.80;99.90;;;;;;5076387;28;20626;-77
2023/07/03 05:50:34;;;;;;;30.42;6.28;;;14.80;99.90;;;;;;5075917;28;20625;-76
2023/07/03 05:53:00;;;;;;;27.98;8.00;;;14.90;99.90;;;;;;5076091;28;20533;-76
2023/07/03 05:55:26;;;;;;;20.85;6.63;;;14.90;99.90;;;;;;5057975;28;20543;-76
2023/07/03 05:57:52;;;;;;;18.45;6.53;;;14.90;99.90;;;;;;5075933;28;20257;-76
2023/07/03 06:00:27;;;;;;;23.65;6.03;;;14.90;99.90;;;;;;5057762;28;20198;-76
2023/07/03 06:02:54;;;;;;;18.45;6.00;;;14.90;99.90;;;;;;5057811;28;20174;-76
2023/07/03 06:05:21;;;;;;;20.63;6.18;;;15.00;99.90;;;;;;5057649;28;20224;-77
2023/07/03 06:07:47;;;;;;;27.20;6.70;;;15.00;99.90;;;;;;5057791;28;20201;-76
2023/07/03 06:10:13;;;;;;;19.08;6.13;;;15.10;99.90;;;;;;5057539;28;20218;-76
2023/07/03 06:12:40;;;;;;;20.75;6.22;;;15.10;99.90;;;;;;5076128;28;20602;-76
2023/07/03 06:15:06;;;;;;;24.48;6.43;;;15.10;99.90;;;;;;5075537;28;20174;-76
2023/07/03 06:17:32;;;;;;;19.05;6.28;;;15.10;99.90;;;;;;5076161;28;20638;-75
2023/07/03 06:19:58;;;;;;;20.17;6.00;;;15.10;99.90;;;;;;5075630;28;20194;-76
2023/07/03 06:22:24;;;;;;;19.20;6.72;;;15.10;99.90;;;;;;5057951;28;20222;-76
2023/07/03 06:24:50;;;;;;;22.65;6.25;;;15.10;99.90;;;;;;5075717;28;20178;-76
2023/07/03 06:27:16;;;;;;;21.55;6.63;;;15.10;99.90;;;;;;5057625;28;20216;-76
2023/07/03 06:29:42;;;;;;;25.30;6.88;;;15.10;99.90;;;;;;5075420;28;20579;-76
2023/07/03 06:32:10;;;;;;;35.00;6.85;;;15.20;99.90;;;;;;5075079;28;20174;-76
2023/07/03 06:34:36;;;;;;;22.58;6.22;;;15.20;99.90;;;;;;5075630;28;20162;-76
2023/07/03 06:37:05;;;;;;;20.73;5.75;;;15.40;99.90;;;;;;5075540;28;20173;-76
2023/07/03 06:39:31;;;;;;;24.73;6.10;;;15.50;99.90;;;;;;5057504;28;20221;-76
2023/07/03 06:41:57;;;;;;;20.08;6.60;;;15.50;99.90;;;;;;5057574;28;20304;-76
2023/07/03 06:44:23;;;;;;;20.40;6.10;;;15.60;99.90;;;;;;5057597;28;20198;-76
2023/07/03 06:46:50;;;;;;;25.13;6.68;;;15.60;99.90;;;;;;5057639;28;20264;-77
2023/07/03 06:49:17;;;;;;;21.17;6.78;;;15.60;99.90;;;;;;5057806;28;20620;-77
2023/07/03 06:51:43;;;;;;;20.65;6.63;;;15.60;99.90;;;;;;5076423;28;20176;-76
2023/07/03 06:54:09;;;;;;;15.45;6.55;;;15.60;99.90;;;;;;5076705;28;20170;-77
2023/07/03 06:56:34;;;;;;;26.70;7.13;;;15.70;99.90;;;;;;5058737;28;20174;-76
2023/07/03 06:59:00;;;;;;;19.45;5.93;;;15.80;99.90;;;;;;5074875;28;20207;-76
2023/07/03 07:01:30;;;;;;;21.60;6.43;;;15.90;99.90;;;;;;5057726;28;20573;-77
2023/07/03 07:03:56;;;;;;;23.25;6.03;;;15.80;99.90;;;;;;5057808;28;20177;-76
2023/07/03 07:06:27;;;;;;;23.33;7.05;;;15.70;99.90;;;;;;5075233;28;20268;-76
2023/07/03 07:08:54;;;;;;;18.05;6.40;;;15.70;99.90;;;;;;5057315;28;20214;-76
2023/07/03 07:11:25;;;;;;;18.42;6.82;;;15.70;99.90;;;;;;5074999;28;20166;-76
2023/07/03 07:13:52;;;;;;;19.27;6.32;;;15.70;99.90;;;;;;5057201;28;20177;-76
2023/07/03 07:16:20;;;;;;;22.50;6.38;;;15.80;99.90;;;;;;5074845;28;20173;-75
2023/07/03 07:18:57;;;;;;;25.55;7.05;;;15.90;99.90;;;;;;5074968;28;20197;-75
2023/07/03 07:21:23;;;;;;;19.20;6.53;;;16.10;99.90;;;;;;5056746;28;20165;-75
2023/07/03 07:23:51;;;;;;;19.55;6.03;;;16.20;99.90;;;;;;5057434;28;20177;-75
2023/07/03 07:26:18;;;;;;;19.27;6.57;;;16.30;99.90;;;;;;5058412;28;20181;-75
2023/07/03 07:28:43;;;;;;;23.25;6.40;;;16.30;99.90;;;;;;5058947;28;20263;-75
2023/07/03 07:31:09;;;;;;;24.08;6.80;;;16.30;99.90;;;;;;5076338;28;20173;-75
2023/07/03 07:33:35;;;;;;;25.85;6.25;;;16.40;99.90;;;;;;5058595;28;20285;-77
2023/07/03 07:36:01;;;;;;;22.52;7.40;;;16.50;99.90;;;;;;5076034;28;20182;-76
2023/07/03 07:38:26;;;;;;;25.02;6.88;;;16.50;99.90;;;;;;5056805;28;20198;-75
2023/07/03 07:41:02;;;;;;;21.80;6.93;;;16.50;99.90;;;;;;5056881;28;20226;-75
2023/07/03 07:43:28;;;;;;;23.33;6.50;;;16.40;99.90;;;;;;5056638;28;20184;-75
2023/07/03 07:45:55;;;;;;;19.70;6.80;;;16.50;99.90;;;;;;5074368;28;20178;-76
2023/07/03 07:48:21;;;;;;;21.20;7.50;;;16.40;99.90;;;;;;5056304;28;20574;-76
2023/07/03 07:50:47;;;;;;;17.00;6.72;;;16.40;99.90;;;;;;5074708;28;20166;-76
2023/07/03 07:53:13;;;;;;;18.65;6.75;;;16.50;99.90;;;;;;5056536;28;20222;-76
2023/07/03 07:55:38;;;;;;;17.42;6.00;;;16.50;99.90;;;;;;5074479;28;20166;-76
2023/07/03 07:58:04;;;;;;;17.25;6.60;;;16.60;99.90;;;;;;5074274;28;20172;-77
2023/07/03 08:00:30;;;;;;;19.30;7.00;;;16.80;99.90;;;;;;5056209;28;20292;-77
2023/07/03 08:02:56;;;;;;;19.33;6.80;;;16.80;99.90;;;;;;5073979;28;20166;-75
2023/07/03 08:05:22;;;;;;;21.17;6.35;;;16.80;99.90;;;;;;5055966;28;20246;-76
2023/07/03 08:07:48;;;;;;;23.50;6.85;;;16.90;99.90;;;;;;5074314;28;20164;-76
2023/07/03 08:10:14;;;;;;;20.20;6.28;;;17.20;99.90;;;;;;5055706;28;20210;-76
2023/07/03 08:12:40;;;;;;;17.13;5.82;;;17.30;4.60;;;;;;5056183;28;20184;-75
2023/07/03 08:15:07;;;;;;;16.23;7.10;;;17.30;1.00;;;;;;5056043;28;20672;-76
2023/07/03 08:17:34;;;;;;;18.65;6.10;;;17.30;1.00;;;;;;5073880;28;20178;-76
2023/07/03 08:20:00;;;;;;;15.52;5.78;;;17.30;1.00;;;;;;5073800;28;20229;-76
2023/07/03 08:22:27;;;;;;;18.52;5.65;;;17.30;1.00;;;;;;5055988;28;20539;-76
2023/07/03 08:24:53;;;;;;;17.27;6.18;;;17.20;1.00;;;;;;5055628;28;20265;-76
2023/07/03 08:27:18;;;;;;;17.67;6.07;;;17.20;1.00;;;;;;5055828;28;20331;-76
2023/07/03 08:29:46;;;;;;;16.65;6.72;;;17.40;1.00;;;;;;5073668;28;20205;-75
2023/07/03 08:32:13;;;;;;;20.20;6.65;;;17.50;1.00;;;;;;5055637;28;20174;-77
2023/07/03 08:34:39;;;;;;;17.73;6.13;;;17.50;1.00;;;;;;5073900;28;20166;-76
2023/07/03 08:37:05;;;;;;;20.33;6.22;;;17.50;1.00;;;;;;5055708;28;20657;-77
2023/07/03 08:39:31;;;;;;;15.57;5.55;;;17.50;1.00;;;;;;5055642;28;20288;-77
2023/07/03 08:42:04;;;;;;;13.07;5.57;;;17.40;99.90;;;;;;5073914;28;20234;-76
2023/07/03 08:44:30;;;;;;;12.90;4.78;;;17.40;99.90;;;;;;5055944;28;20591;-75
2023/07/03 08:46:58;;;;;;;16.42;5.22;;;17.60;27.10;;;;;;5055795;28;20177;-77
2023/07/03 08:49:25;;;;;;;18.17;6.38;;;17.80;99.90;;;;;;5055167;28;20248;-76
2023/07/03 08:51:52;;;;;;;14.40;4.93;;;17.90;1.00;;;;;;5055393;28;20672;-76
2023/07/03 08:54:27;;;;;;;14.07;6.03;;;18.30;1.00;;;;;;5073849;28;20174;-76
2023/07/03 08:56:54;;;;;;;17.45;5.30;;;18.30;1.00;;;;;;5074032;28;20602;-73
2023/07/03 08:59:20;;;;;;;19.38;5.20;;;18.20;1.00;;;;;;5073369;28;20225;-73
2023/07/03 09:02:06;;;;;;;16.80;5.45;;;18.00;1.00;;;;;;5073261;28;20193;-73
2023/07/03 09:04:53;;;;;;;16.65;5.45;;;17.80;1.00;;;;;;5055214;28;20177;-72
2023/07/03 09:08:00;;;;;;;10.82;5.00;;;17.50;99.90;;;;;;5073211;28;20764;-72
2023/07/03 09:10:32;;;;;;;18.17;5.40;;;17.40;99.90;;;;;;5038114;28;20720;-73
2023/07/03 09:13:10;;;;;;;12.75;5.00;;;17.40;99.90;;;;;;5073682;28;20161;-72
2023/07/03 09:15:58;;;;;;;21.55;5.88;;;17.30;99.90;;;;;;5055493;28;20188;-73
2023/07/03 09:18:29;;;;;;;12.70;5.13;;;17.20;99.90;;;;;;5073694;28;20257;-73
2023/07/03 09:20:57;;;;;;;21.23;5.45;;;17.30;99.90;;;;;;5056285;28;20586;-73
2023/07/03 09:23:55;;;;;;;16.90;5.93;;;17.50;1.00;;;;;;5059226;28;20185;-72
2023/07/03 09:26:52;;;;;;;16.48;5.60;;;17.70;99.90;;;;;;5069202;28;20186;-73
2023/07/03 09:29:18;;;;;;;14.73;4.68;;;17.80;1.00;;;;;;5058752;28;20686;-73
2023/07/03 09:31:45;;;;;;;18.65;5.43;;;17.90;99.90;;;;;;5076404;28;20197;-72
2023/07/03 09:34:11;;;;;;;19.50;4.90;;;18.20;1.00;;;;;;5077124;28;20174;-73
2023/07/03 09:36:39;;;;;;;14.32;5.78;;;18.30;99.90;;;;;;5058619;28;20584;-73
2023/07/03 09:39:09;;;;;;;13.98;4.70;;;18.30;10.10;;;;;;5076531;28;20273;-73
2023/07/03 09:41:35;;;;;;;11.93;4.63;;;18.40;1.00;;;;;;5059360;28;20170;-73
2023/07/03 09:44:07;;;;;;;16.48;4.78;;;18.30;1.00;;;;;;5059163;28;20653;-78
2023/07/03 09:46:33;;;;;;;15.65;5.55;;;18.40;42.20;;;;;;5076810;28;20188;-74
2023/07/03 09:49:02;;;;;;;13.30;4.97;;;18.60;1.00;;;;;;5076218;28;20202;-72
2023/07/03 09:51:30;;;;;;;15.10;5.10;;;18.80;70.00;;;;;;5058669;28;20174;-73
2023/07/03 09:53:58;;;;;;;14.38;4.57;;;18.80;99.90;;;;;;5076243;28;20223;-75
2023/07/03 09:56:30;;;;;;;9.60;4.10;;;18.60;1.00;;;;;;5077408;28;20154;-74
2023/07/03 09:59:00;;;;;;;15.15;4.60;;;18.50;90.40;;;;;;5057858;28;20209;-74
2023/07/03 10:01:30;;;;;;;15.57;4.68;;;18.60;1.00;;;;;;5076047;28;20169;-73
2023/07/03 10:04:11;;;;;;;14.90;4.93;;;18.70;99.90;;;;;;5058594;28;20178;-74
2023/07/03 10:06:39;;;;;;;10.57;4.32;;;18.50;1.00;;;;;;5057945;28;20194;-73
2023/07/03 10:09:16;;;;;;;17.13;4.70;;;18.40;99.90;;;;;;5057867;28;20607;-74
2023/07/03 10:12:11;;;;;;;13.48;4.82;;;18.20;99.90;;;;;;5057781;28;20174;-74
2023/07/03 10:14:58;;;;;;;12.05;4.53;;;18.10;1.00;;;;;;5075658;28;20161;-74
2023/07/03 10:17:35;;;;;;;13.48;5.82;;;18.20;99.90;;;;;;5057811;28;20261;-74
2023/07/03 10:20:04;;;;;;;14.27;4.28;;;18.40;1.00;;;;;;5075691;28;20197;-75
2023/07/03 10:22:33;;;;;;;15.05;4.40;;;18.80;99.90;;;;;;5075769;28;20154;-74
2023/07/03 10:25:04;;;;;;;13.40;4.07;;;19.00;99.90;;;;;;5057878;28;20311;-73
2023/07/03 10:27:39;;;;;;;10.50;4.30;;;19.00;1.00;;;;;;5075434;28;20161;-75
2023/07/03 10:30:11;;;;;;;7.97;4.25;;;18.90;1.00;;;;;;5057278;28;20209;-73
2023/07/03 10:32:38;;;;;;;10.52;3.65;;;18.90;1.00;;;;;;5074965;28;20153;-74
2023/07/03 10:35:22;;;;;;;12.70;4.70;;;18.90;76.10;;;;;;5075500;28;20531;-74
2023/07/03 10:38:14;;;;;;;12.05;4.90;;;18.80;1.00;;;;;;5075801;28;20164;-73
2023/07/03 10:41:03;;;;;;;15.23;5.10;;;18.60;99.90;;;;;;5075550;28;20155;-74
2023/07/03 10:43:34;;;;;;;10.73;4.65;;;18.40;1.00;;;;;;5063258;28;20178;-74
2023/07/03 10:46:02;;;;;;;16.40;5.05;;;18.30;99.90;;;;;;5075261;28;20544;-74
2023/07/03 10:48:33;;;;;;;11.70;4.90;;;18.50;99.90;;;;;;5075106;28;20221;-73
2023/07/03 10:51:03;;;;;;;13.43;4.97;;;18.70;46.80;;;;;;5075733;28;20158;-74
2023/07/03 10:53:44;;;;;;;16.20;4.82;;;18.90;1.00;;;;;;5057094;28;20264;-75
2023/07/03 10:56:23;;;;;;;14.68;4.65;;;19.40;99.90;;;;;;5057279;28;20174;-75
2023/07/03 10:59:00;;;;;;;10.50;3.90;;;19.80;1.00;;;;;;5075057;28;20194;-75
2023/07/03 11:01:39;;;;;;;12.57;4.43;;;20.00;99.90;;;;;;5074459;28;20165;-74
2023/07/03 11:04:11;;;;;;;11.45;3.78;;;20.10;1.00;;;;;;5075112;28;20172;-74
2023/07/03 11:06:48;;;;;;;18.35;4.70;;;20.00;99.90;;;;;;5056522;28;20200;-73
2023/07/03 11:09:39;;;;;;;8.93;3.88;;;19.70;1.00;;;;;;5074694;28;20209;-74
2023/07/03 11:12:30;;;;;;;11.52;3.78;;;19.60;1.00;;;;;;5074793;28;20162;-74
2023/07/03 11:15:14;;;;;;;12.52;4.45;;;19.60;1.00;;;;;;5056784;28;20669;-74
2023/07/03 11:17:39;;;;;;;10.82;3.92;;;19.60;1.00;;;;;;5056428;28;20252;-73
2023/07/03 11:20:20;;;;;;;11.27;4.05;;;19.50;1.00;;;;;;5074428;28;20197;-73
2023/07/03 11:22:52;;;;;;;11.52;3.97;;;19.50;1.00;;;;;;5056713;28;20180;-74
2023/07/03 11:25:49;;;;;;;14.75;4.00;;;19.50;16.60;;;;;;5056647;28;20198;-73
2023/07/03 11:28:33;;;;;;;11.73;4.05;;;19.60;99.90;;;;;;5064235;28;20287;-73
2023/07/03 11:31:01;;;;;;;13.63;4.32;;;19.70;1.00;;;;;;5075264;28;20166;-74
2023/07/03 11:33:29;;;;;;;16.75;5.35;;;19.60;1.00;;;;;;5056655;28;20181;-74
2023/07/03 11:35:57;;;;;;;11.75;4.25;;;19.60;99.90;;;;;;5056781;28;20729;-74
2023/07/03 11:38:24;;;;;;;12.52;4.53;;;19.50;1.00;;;;;;5056172;28;20186;-74
2023/07/03 11:40:53;;;;;;;14.30;4.38;;;19.40;23.80;;;;;;5056509;28;20239;-74
2023/07/03 11:43:36;;;;;;;12.70;3.90;;;19.30;1.00;;;;;;5055626;28;20181;-74
2023/07/03 11:46:16;;;;;;;13.10;3.90;;;19.40;1.00;;;;;;5055756;28;20276;-74
2023/07/03 11:48:45;;;;;;;8.70;4.10;;;19.60;1.00;;;;;;5055745;28;20208;-74
2023/07/03 11:51:30;;;;;;;9.65;3.58;;;19.80;99.90;;;;;;5073733;28;20219;-74
2023/07/03 11:53:57;;;;;;;11.82;3.80;;;19.80;1.00;;;;;;5055834;28;20169;-74
2023/07/03 11:56:44;;;;;;;11.77;3.97;;;19.90;1.00;;;;;;5055938;28;20174;-74
2023/07/03 11:59:23;;;;;;;11.48;4.38;;;19.70;99.90;;;;;;5055716;28;20761;-75
2023/07/03 12:01:50;;;;;;;12.75;4.70;;;19.60;99.90;;;;;;5055566;28;20275;-74
2023/07/03 12:04:47;;;;;;;11.35;4.30;;;19.60;99.90;;;;;;5073663;28;20174;-74
2023/07/03 12:07:20;;;;;;;13.52;4.07;;;19.60;99.90;;;;;;5066696;28;20220;-75
2023/07/03 12:10:17;;;;;;;9.70;4.15;;;19.60;1.00;;;;;;5077757;28;20225;-73
2023/07/03 12:12:49;;;;;;;7.43;3.92;;;19.40;10.20;;;;;;5077520;28;20204;-74
2023/07/03 12:15:15;;;;;;;13.95;4.28;;;19.30;99.90;;;;;;5059820;28;20244;-74
2023/07/03 12:17:41;;;;;;;12.43;4.18;;;19.20;1.00;;;;;;5056773;28;20211;-74
2023/07/03 12:20:21;;;;;;;9.13;4.35;;;19.20;99.90;;;;;;5077713;28;20566;-74
2023/07/03 12:22:51;;;;;;;15.13;5.00;;;19.50;1.00;;;;;;5063452;28;20201;-73
2023/07/03 12:25:25;;;;;;;12.25;4.30;;;19.70;99.90;;;;;;5076244;28;20170;-74
2023/07/03 12:27:52;;;;;;;10.80;4.60;;;19.90;99.90;;;;;;5058291;28;20181;-75
2023/07/03 12:30:24;;;;;;;14.63;4.60;;;20.10;99.90;;;;;;5055850;28;20206;-75
2023/07/03 12:32:51;;;;;;;11.15;4.38;;;20.30;1.00;;;;;;5055161;28;20252;-75
2023/07/03 12:35:21;;;;;;;10.15;4.45;;;20.20;99.90;;;;;;5055493;28;20170;-75
2023/07/03 12:38:04;;;;;;;14.32;5.05;;;20.00;1.00;;;;;;5073555;28;20161;-76
2023/07/03 12:40:29;;;;;;;14.48;4.90;;;19.70;99.90;;;;;;5055295;28;20751;-75
2023/07/03 12:42:56;;;;;;;16.60;5.18;;;19.40;1.00;;;;;;5073399;28;20271;-76
2023/07/03 12:45:26;;;;;;;12.77;4.78;;;19.30;99.90;;;;;;5073125;28;20220;-73
2023/07/03 12:48:08;;;;;;;10.60;4.30;;;19.10;99.90;;;;;;5055177;28;20265;-75
2023/07/03 12:50:55;;;;;;;12.65;4.78;;;19.00;99.90;;;;;;5054992;28;20198;-73
2023/07/03 12:53:22;;;;;;;10.45;4.68;;;18.90;1.00;;;;;;5055412;28;20593;-73